createdAt,value
2019-04-30T00:01:55.793Z,11.03
2019-04-30T00:04:29.846Z,10.17
2019-04-30T00:07:01.720Z,11.80
2019-04-30T00:09:35.158Z,11.30
2019-04-30T00:12:07.519Z,11.37
2019-04-30T00:14:41.353Z,10.27
2019-04-30T00:17:16.011Z,10.90
2019-04-30T00:19:50.558Z,12.50
2019-04-30T00:22:30.913Z,11.63
2019-04-30T00:24:55.498Z,11.47
2019-04-30T00:27:30.205Z,11.40
2019-04-30T00:30:04.833Z,11.00
2019-04-30T00:32:39.022Z,12.73
2019-04-30T00:35:11.808Z,12.20
2019-04-30T00:37:40.981Z,12.47
2019-04-30T00:40:15.373Z,11.50
2019-04-30T00:42:47.489Z,11.97
2019-04-30T00:45:19.120Z,12.40
2019-04-30T00:47:50.718Z,13.23
2019-04-30T00:50:22.616Z,12.20
2019-04-30T00:52:55.510Z,13.50
2019-04-30T00:55:27.846Z,13.47
2019-04-30T00:57:59.766Z,12.40
2019-04-30T01:00:33.109Z,13.83
2019-04-30T01:03:19.336Z,13.43
2019-04-30T01:05:51.173Z,13.53
2019-04-30T01:08:27.185Z,13.90
2019-04-30T01:10:59.852Z,12.90
2019-04-30T01:13:31.578Z,13.00
2019-04-30T01:16:03.366Z,12.60
2019-04-30T01:18:35.018Z,12.70
2019-04-30T01:21:07.885Z,13.13
2019-04-30T01:23:48.058Z,14.73
2019-04-30T01:26:14.872Z,13.60
2019-04-30T01:28:49.387Z,13.80
2019-04-30T01:31:21.197Z,13.97
2019-04-30T01:33:53.200Z,13.03
2019-04-30T01:36:25.020Z,13.73
2019-04-30T01:38:56.704Z,13.60
2019-04-30T01:41:31.446Z,14.83
2019-04-30T01:44:03.700Z,13.90
2019-04-30T01:46:36.053Z,12.50
2019-04-30T01:49:08.644Z,13.00
2019-04-30T01:51:40.422Z,13.50
2019-04-30T01:54:13.694Z,14.07
2019-04-30T01:57:19.792Z,13.47
2019-04-30T02:00:09.771Z,13.53
2019-04-30T02:02:43.242Z,14.90
2019-04-30T02:05:14.911Z,14.90
2019-04-30T02:07:48.610Z,13.60
2019-04-30T02:10:21.079Z,14.40
2019-04-30T02:12:53.131Z,14.10
2019-04-30T02:15:24.982Z,15.90
2019-04-30T02:17:58.288Z,15.47
2019-04-30T02:20:30.739Z,17.27
2019-04-30T02:23:02.590Z,15.80
2019-04-30T02:25:34.491Z,18.40
2019-04-30T02:28:06.283Z,17.87
2019-04-30T02:30:40.497Z,20.23
2019-04-30T02:33:11.438Z,17.97
2019-04-30T02:35:53.351Z,16.87
2019-04-30T02:38:33.457Z,17.13
2019-04-30T02:41:09.639Z,16.67
2019-04-30T02:43:42.405Z,17.50
2019-04-30T02:46:16.359Z,17.90
2019-04-30T02:48:50.438Z,18.13
2019-04-30T02:51:25.543Z,18.67
2019-04-30T02:54:26.088Z,17.60
2019-04-30T02:57:11.551Z,16.30
2019-04-30T03:00:02.119Z,19.67
2019-04-30T03:02:33.801Z,17.10
2019-04-30T03:05:06.412Z,21.50
2019-04-30T03:07:40.513Z,17.93
2019-04-30T03:10:12.034Z,18.47
2019-04-30T03:12:43.909Z,17.53
2019-04-30T03:15:15.577Z,18.77
2019-04-30T03:18:02.232Z,17.93
2019-04-30T03:21:02.272Z,17.60
2019-04-30T03:23:33.984Z,15.67
2019-04-30T03:26:05.904Z,15.77
2019-04-30T03:28:39.666Z,16.57
2019-04-30T03:31:12.428Z,17.57
2019-04-30T03:33:44.426Z,16.53
2019-04-30T03:36:16.256Z,18.80
2019-04-30T03:38:50.090Z,16.67
2019-04-30T03:41:21.804Z,15.20
2019-04-30T03:43:53.701Z,18.40
2019-04-30T03:46:25.342Z,18.27
2019-04-30T03:48:57.080Z,24.80
2019-04-30T03:51:30.335Z,20.13
2019-04-30T03:54:02.247Z,19.67
2019-04-30T03:56:34.645Z,18.57
2019-04-30T03:59:06.381Z,18.83
2019-04-30T04:01:44.617Z,16.30
2019-04-30T04:04:22.466Z,16.77
2019-04-30T04:07:06.199Z,15.40
2019-04-30T04:09:43.496Z,17.77
2019-04-30T04:12:33.817Z,17.80
2019-04-30T04:15:05.829Z,17.37
2019-04-30T04:17:39.694Z,18.20
2019-04-30T04:20:11.682Z,16.60
2019-04-30T04:22:43.697Z,15.50
2019-04-30T04:25:15.661Z,17.10
2019-04-30T04:27:50.561Z,16.27
2019-04-30T04:30:20.998Z,16.67
2019-04-30T04:32:52.660Z,15.00
2019-04-30T04:35:24.406Z,17.40
2019-04-30T04:37:56.284Z,16.17
2019-04-30T04:40:30.234Z,16.57
2019-04-30T04:43:01.898Z,15.80
2019-04-30T04:45:33.763Z,16.30
2019-04-30T04:48:05.563Z,17.07
2019-04-30T04:50:39.796Z,17.60
2019-04-30T04:53:11.652Z,17.27
2019-04-30T04:55:44.737Z,15.73
2019-04-30T04:58:21.173Z,18.57
2019-04-30T05:00:50.658Z,19.13
2019-04-30T05:03:30.502Z,17.30
2019-04-30T05:06:02.809Z,16.70
2019-04-30T05:08:34.593Z,17.40
2019-04-30T05:11:06.845Z,16.20
2019-04-30T05:13:38.972Z,19.47
2019-04-30T05:16:10.719Z,19.60
2019-04-30T05:18:42.624Z,19.87
2019-04-30T05:21:14.708Z,20.53
2019-04-30T05:23:46.372Z,21.10
2019-04-30T05:26:19.093Z,19.40
2019-04-30T05:28:52.987Z,18.53
2019-04-30T05:31:25.625Z,17.73
2019-04-30T05:33:58.764Z,18.70
2019-04-30T05:36:30.571Z,15.37
2019-04-30T05:39:02.740Z,16.33
2019-04-30T05:41:34.573Z,17.70
2019-04-30T05:44:08.208Z,16.73
2019-04-30T05:46:40.255Z,17.57
2019-04-30T05:49:12.179Z,19.40
2019-04-30T05:51:53.624Z,18.20
2019-04-30T05:54:18.936Z,16.60
2019-04-30T05:56:51.060Z,18.50
2019-04-30T05:59:22.937Z,17.20
2019-04-30T06:01:54.772Z,16.87
2019-04-30T06:04:26.607Z,15.83
2019-04-30T06:06:58.719Z,22.57
2019-04-30T06:09:41.155Z,19.47
2019-04-30T06:12:24.896Z,17.50
2019-04-30T06:15:15.577Z,15.83
2019-04-30T06:18:00.073Z,18.80
2019-04-30T06:20:23.171Z,22.90
2019-04-30T06:22:56.762Z,20.37
2019-04-30T06:25:37.221Z,18.70
2019-04-30T06:28:02.324Z,26.77
2019-04-30T06:30:34.598Z,23.47
2019-04-30T06:33:06.451Z,17.97
2019-04-30T06:35:39.169Z,16.63
2019-04-30T06:38:11.100Z,16.77
2019-04-30T06:40:48.737Z,18.43
2019-04-30T06:43:23.015Z,17.10
2019-04-30T06:45:55.453Z,19.40
2019-04-30T06:48:27.263Z,17.23
2019-04-30T06:51:20.763Z,19.10
2019-04-30T06:54:05.878Z,17.00
2019-04-30T06:56:38.710Z,19.60
2019-04-30T06:59:14.154Z,17.57
2019-04-30T07:01:49.005Z,17.00
2019-04-30T07:04:22.276Z,18.00
2019-04-30T07:06:58.913Z,16.23
2019-04-30T07:09:53.145Z,15.10
2019-04-30T07:12:27.990Z,14.17
2019-04-30T07:15:00.921Z,17.70
2019-04-30T07:17:33.089Z,14.77
2019-04-30T07:20:07.569Z,23.00
2019-04-30T07:22:49.609Z,17.60
2019-04-30T07:25:19.469Z,19.03
2019-04-30T07:27:56.529Z,15.60
2019-04-30T07:30:30.955Z,14.63
2019-04-30T07:33:02.919Z,14.40
2019-04-30T07:35:39.929Z,13.53
2019-04-30T07:38:12.416Z,13.30
2019-04-30T07:40:44.048Z,14.33
2019-04-30T07:43:15.959Z,13.43
2019-04-30T07:45:49.548Z,14.57
2019-04-30T07:48:26.259Z,12.47
2019-04-30T07:50:55.237Z,13.17
2019-04-30T07:53:26.850Z,13.50
2019-04-30T07:55:58.898Z,38.80
2019-04-30T07:58:31.059Z,55.53
2019-04-30T08:01:03.278Z,42.27
2019-04-30T08:03:58.992Z,30.40
2019-04-30T08:06:31.599Z,26.83
2019-04-30T08:09:04.347Z,19.80
2019-04-30T08:11:41.861Z,16.20
2019-04-30T08:14:09.838Z,20.10
2019-04-30T08:16:41.776Z,14.37
2019-04-30T08:19:14.290Z,14.20
2019-04-30T08:21:46.309Z,13.60
2019-04-30T08:24:19.337Z,12.90
2019-04-30T08:26:51.163Z,15.07
2019-04-30T08:29:22.915Z,16.60
2019-04-30T08:31:54.999Z,14.10
2019-04-30T08:34:29.114Z,13.13
2019-04-30T08:37:12.453Z,13.77
2019-04-30T08:39:34.286Z,12.67
2019-04-30T08:42:06.287Z,15.30
2019-04-30T08:44:39.650Z,17.77
2019-04-30T08:47:11.553Z,15.30
2019-04-30T08:49:43.684Z,14.40
2019-04-30T08:52:15.764Z,19.17
2019-04-30T08:54:49.611Z,13.13
2019-04-30T08:57:21.609Z,13.50
2019-04-30T08:59:53.452Z,13.17
2019-04-30T09:02:25.489Z,11.80
2019-04-30T09:05:00.580Z,12.73
2019-04-30T09:07:32.311Z,13.50
2019-04-30T09:10:09.281Z,11.57
2019-04-30T09:12:41.328Z,12.30
2019-04-30T09:15:21.215Z,12.30
2019-04-30T09:18:03.192Z,12.10
2019-04-30T09:20:36.621Z,13.27
2019-04-30T09:23:10.986Z,14.17
2019-04-30T09:25:42.141Z,13.77
2019-04-30T09:28:14.309Z,12.40
2019-04-30T09:30:56.048Z,12.50
2019-04-30T09:33:34.521Z,13.33
2019-04-30T09:36:09.152Z,12.33
2019-04-30T09:38:54.442Z,12.53
2019-04-30T09:41:31.761Z,13.23
2019-04-30T09:44:07.311Z,13.03
2019-04-30T09:46:42.334Z,12.87
2019-04-30T09:49:19.559Z,15.17
2019-04-30T09:51:54.007Z,13.40
2019-04-30T09:54:51.645Z,12.03
2019-04-30T09:57:44.465Z,12.17
2019-04-30T10:00:50.396Z,12.97
2019-04-30T10:04:00.313Z,12.83
2019-04-30T10:06:39.842Z,15.23
2019-04-30T10:09:12.273Z,13.90
2019-04-30T10:11:57.255Z,13.00
2019-04-30T10:14:29.458Z,13.70
2019-04-30T10:17:13.932Z,13.50
2019-04-30T10:19:46.561Z,12.73
2019-04-30T10:22:18.815Z,13.20
2019-04-30T10:24:52.266Z,11.87
2019-04-30T10:27:25.310Z,12.50
2019-04-30T10:29:59.255Z,12.10
2019-04-30T10:32:31.232Z,13.80
2019-04-30T10:35:03.021Z,12.03
2019-04-30T10:37:35.089Z,14.47
2019-04-30T10:40:07.318Z,13.27
2019-04-30T10:42:39.396Z,13.77
2019-04-30T10:45:11.517Z,12.80
2019-04-30T10:47:43.744Z,13.03
2019-04-30T10:50:16.191Z,11.60
2019-04-30T10:52:49.179Z,11.90
2019-04-30T10:55:21.424Z,13.00
2019-04-30T10:57:53.419Z,12.87
2019-04-30T11:00:41.607Z,12.70
2019-04-30T11:03:19.965Z,12.33
2019-04-30T11:05:50.186Z,11.77
2019-04-30T11:08:22.547Z,13.23
2019-04-30T11:10:54.920Z,12.80
2019-04-30T11:13:27.242Z,12.57
2019-04-30T11:16:11.880Z,12.60
2019-04-30T11:18:33.429Z,12.27
2019-04-30T11:21:06.131Z,13.70
2019-04-30T11:23:39.936Z,12.13
2019-04-30T11:26:13.019Z,11.20
2019-04-30T11:28:46.123Z,11.73
2019-04-30T11:31:35.963Z,12.07
2019-04-30T11:34:08.605Z,11.10
2019-04-30T11:36:40.699Z,11.20
2019-04-30T11:39:19.771Z,11.80
2019-04-30T11:41:52.119Z,11.07
2019-04-30T11:44:30.851Z,11.50
2019-04-30T11:47:31.394Z,10.60
2019-04-30T11:50:04.198Z,12.23
2019-04-30T11:52:36.482Z,11.57
2019-04-30T11:55:11.692Z,10.77
2019-04-30T11:57:44.618Z,11.13
2019-04-30T12:00:24.988Z,10.87
2019-04-30T12:02:59.035Z,10.33
2019-04-30T12:05:31.600Z,9.83
2019-04-30T12:08:19.336Z,9.83
2019-04-30T12:11:10.016Z,9.80
2019-04-30T12:13:42.374Z,10.00
2019-04-30T12:16:14.459Z,9.73
2019-04-30T12:18:46.425Z,8.60
2019-04-30T12:21:18.790Z,10.80
2019-04-30T12:23:51.116Z,9.07
2019-04-30T12:26:23.236Z,9.30
2019-04-30T12:28:55.358Z,9.57
2019-04-30T12:31:27.457Z,8.47
2019-04-30T12:33:59.554Z,9.67
2019-04-30T12:36:31.667Z,10.17
2019-04-30T12:39:04.228Z,10.17
2019-04-30T12:41:40.383Z,8.77
2019-04-30T12:44:11.207Z,9.30
2019-04-30T12:46:43.196Z,8.13
2019-04-30T12:49:15.281Z,8.57
2019-04-30T12:52:05.008Z,8.30
2019-04-30T12:54:42.464Z,6.90
2019-04-30T12:57:29.517Z,8.83
2019-04-30T13:00:01.895Z,8.30
2019-04-30T13:02:34.098Z,7.60
2019-04-30T13:05:08.672Z,8.93
2019-04-30T13:07:41.298Z,7.80
2019-04-30T13:10:14.441Z,7.60
2019-04-30T13:12:47.716Z,8.27
2019-04-30T13:15:20.586Z,8.23
2019-04-30T13:17:52.753Z,7.33
2019-04-30T13:20:25.142Z,7.70
2019-04-30T13:22:58.848Z,7.00
2019-04-30T13:25:35.588Z,7.80
2019-04-30T13:28:10.013Z,7.80
2019-04-30T13:30:41.205Z,8.17
2019-04-30T13:33:29.430Z,7.00
2019-04-30T13:36:01.706Z,7.77
2019-04-30T13:38:49.023Z,8.60
2019-04-30T13:41:38.633Z,8.73
2019-04-30T13:44:13.792Z,8.37
2019-04-30T13:46:45.959Z,7.13
2019-04-30T13:49:18.986Z,9.20
2019-04-30T13:51:51.330Z,8.47
2019-04-30T13:54:23.469Z,8.00
2019-04-30T13:56:55.550Z,8.00
2019-04-30T13:59:27.681Z,8.60
2019-04-30T14:01:59.808Z,8.00
2019-04-30T14:04:49.592Z,7.97
2019-04-30T14:07:40.601Z,8.03
2019-04-30T14:10:13.785Z,8.50
2019-04-30T14:12:52.187Z,7.57
2019-04-30T14:15:23.600Z,6.83
2019-04-30T14:17:53.551Z,7.80
2019-04-30T14:20:26.157Z,7.40
2019-04-30T14:22:58.471Z,7.80
2019-04-30T14:25:30.790Z,8.53
2019-04-30T14:28:03.028Z,7.77
2019-04-30T14:30:35.396Z,7.57
2019-04-30T14:33:09.456Z,7.07
2019-04-30T14:35:41.900Z,7.40
2019-04-30T14:38:14.402Z,7.57
2019-04-30T14:40:47.521Z,6.37
2019-04-30T14:43:26.623Z,7.60
2019-04-30T14:46:21.740Z,7.27
2019-04-30T14:48:59.950Z,6.70
2019-04-30T14:51:31.091Z,6.80
2019-04-30T14:54:09.976Z,6.40
2019-04-30T14:57:04.042Z,6.90
2019-04-30T14:59:58.733Z,7.20
2019-04-30T15:02:40.812Z,7.30
2019-04-30T15:05:13.073Z,6.47
2019-04-30T15:07:45.579Z,6.50
2019-04-30T15:10:18.379Z,6.70
2019-04-30T15:12:51.061Z,6.47
2019-04-30T15:15:23.324Z,6.93
2019-04-30T15:17:55.569Z,6.47
2019-04-30T15:20:29.534Z,7.40
2019-04-30T15:23:21.883Z,6.03
2019-04-30T15:25:54.185Z,5.30
2019-04-30T15:28:32.171Z,5.73
2019-04-30T15:30:58.716Z,6.83
2019-04-30T15:33:44.891Z,7.20
2019-04-30T15:36:19.239Z,6.20
2019-04-30T15:39:05.754Z,5.77
2019-04-30T15:41:37.963Z,5.20
2019-04-30T15:44:10.622Z,5.23
2019-04-30T15:46:43.052Z,5.80
2019-04-30T15:49:15.232Z,6.60
2019-04-30T15:51:48.289Z,6.77
2019-04-30T15:54:20.974Z,6.40
2019-04-30T15:56:53.372Z,5.30
2019-04-30T15:59:50.070Z,5.27
2019-04-30T16:02:28.740Z,5.67
2019-04-30T16:05:33.216Z,6.90
2019-04-30T16:08:41.596Z,5.60
2019-04-30T16:11:31.585Z,5.77
2019-04-30T16:14:11.423Z,5.00
2019-04-30T16:16:47.412Z,5.20
2019-04-30T16:19:20.083Z,5.50
2019-04-30T16:21:59.129Z,5.50
2019-04-30T16:24:31.969Z,5.70
2019-04-30T16:27:04.188Z,5.00
2019-04-30T16:29:35.976Z,5.10
2019-04-30T16:32:09.264Z,5.17
2019-04-30T16:34:41.750Z,5.70
2019-04-30T16:37:13.589Z,5.13
2019-04-30T16:39:45.638Z,6.00
2019-04-30T16:42:19.024Z,4.90
2019-04-30T16:44:50.971Z,5.07
2019-04-30T16:47:23.022Z,5.43
2019-04-30T16:49:55.275Z,5.87
2019-04-30T16:52:29.290Z,4.97
2019-04-30T16:55:00.950Z,4.87
2019-04-30T16:57:32.684Z,5.33
2019-04-30T17:00:09.196Z,5.47
2019-04-30T17:02:43.350Z,5.50
2019-04-30T17:05:19.907Z,5.80
2019-04-30T17:08:17.006Z,5.57
2019-04-30T17:11:07.164Z,4.53
2019-04-30T17:13:58.451Z,4.20
2019-04-30T17:16:30.301Z,4.50
2019-04-30T17:19:03.476Z,3.83
2019-04-30T17:21:35.621Z,5.13
2019-04-30T17:24:08.762Z,5.57
2019-04-30T17:26:40.671Z,5.00
2019-04-30T17:29:12.811Z,4.73
2019-04-30T17:31:44.883Z,5.03
2019-04-30T17:34:17.128Z,4.70
2019-04-30T17:36:49.694Z,4.20
2019-04-30T17:39:21.794Z,5.20
2019-04-30T17:41:54.001Z,4.10
2019-04-30T17:44:28.800Z,4.50
2019-04-30T17:47:01.164Z,4.00
2019-04-30T17:49:33.653Z,3.93
2019-04-30T17:52:05.864Z,4.23
2019-04-30T17:54:38.637Z,3.90
2019-04-30T17:57:11.254Z,3.70
2019-04-30T17:59:43.685Z,4.27
2019-04-30T18:02:19.471Z,3.80
2019-04-30T18:04:51.776Z,4.23
2019-04-30T18:07:23.904Z,3.90
2019-04-30T18:09:58.604Z,3.53
2019-04-30T18:12:30.481Z,3.83
2019-04-30T18:15:03.237Z,3.70
2019-04-30T18:17:35.391Z,4.10
2019-04-30T18:20:23.389Z,3.97
2019-04-30T18:23:14.242Z,3.00
2019-04-30T18:25:53.999Z,4.03
2019-04-30T18:28:26.043Z,3.33
2019-04-30T18:30:59.037Z,3.70
2019-04-30T18:33:31.148Z,3.93
2019-04-30T18:36:03.240Z,3.43
2019-04-30T18:38:35.158Z,3.83
2019-04-30T18:41:09.325Z,3.60
2019-04-30T18:43:41.486Z,4.03
2019-04-30T18:46:13.407Z,3.83
2019-04-30T18:48:49.711Z,3.40
2019-04-30T18:51:33.651Z,3.77
2019-04-30T18:53:55.913Z,3.57
2019-04-30T18:56:29.008Z,4.00
2019-04-30T18:59:01.116Z,3.70
2019-04-30T19:01:33.163Z,3.50
2019-04-30T19:04:05.370Z,3.70
2019-04-30T19:06:37.219Z,3.73
2019-04-30T19:09:29.653Z,3.60
2019-04-30T19:12:16.570Z,3.67
2019-04-30T19:15:06.113Z,3.70
2019-04-30T19:17:55.501Z,4.00
2019-04-30T19:20:31.547Z,3.50
2019-04-30T19:23:03.400Z,3.37
2019-04-30T19:25:35.708Z,3.87
2019-04-30T19:28:19.048Z,4.27
2019-04-30T19:30:57.364Z,4.80
2019-04-30T19:33:32.366Z,4.13
2019-04-30T19:36:09.660Z,4.77
2019-04-30T19:38:42.236Z,4.83
2019-04-30T19:41:18.923Z,5.90
2019-04-30T19:44:29.384Z,5.50
2019-04-30T19:47:40.962Z,4.90
2019-04-30T19:50:14.412Z,5.33
2019-04-30T19:52:53.648Z,5.17
2019-04-30T19:56:10.594Z,5.37
2019-04-30T19:59:23.317Z,4.87
2019-04-30T20:02:21.775Z,5.20
2019-04-30T20:05:39.399Z,5.60
2019-04-30T20:08:11.938Z,6.10
2019-04-30T20:10:47.811Z,6.37
2019-04-30T20:13:42.893Z,5.53
2019-04-30T20:16:19.655Z,5.60
2019-04-30T20:19:33.893Z,6.50
2019-04-30T20:22:09.369Z,6.00
2019-04-30T20:25:25.635Z,5.47
2019-04-30T20:28:12.283Z,6.53
2019-04-30T20:31:12.413Z,5.30
2019-04-30T20:34:22.569Z,6.40
2019-04-30T20:37:24.476Z,6.47
2019-04-30T20:40:05.319Z,6.43
2019-04-30T20:43:18.746Z,6.47
2019-04-30T20:46:45.969Z,7.27
2019-04-30T20:49:23.411Z,7.40
2019-04-30T20:52:10.159Z,8.13
2019-04-30T20:55:09.756Z,8.20
2019-04-30T20:58:15.938Z,7.47
2019-04-30T21:01:03.425Z,7.80
2019-04-30T21:03:33.358Z,6.37
2019-04-30T21:06:20.131Z,7.30
2019-04-30T21:09:24.317Z,7.10
2019-04-30T21:11:58.780Z,6.70
2019-04-30T21:14:43.774Z,6.70
2019-04-30T21:17:48.397Z,8.37
2019-04-30T21:20:50.641Z,7.87
2019-04-30T21:23:30.079Z,7.67
2019-04-30T21:26:05.772Z,7.73
2019-04-30T21:29:27.345Z,6.30
2019-04-30T21:32:33.328Z,6.57
2019-04-30T21:35:52.714Z,6.83
2019-04-30T21:38:29.209Z,7.77
2019-04-30T21:41:31.799Z,7.63
2019-04-30T21:44:36.779Z,6.50
2019-04-30T21:47:22.781Z,6.50
2019-04-30T21:50:45.416Z,7.77
2019-04-30T21:53:31.623Z,7.30
2019-04-30T21:57:19.263Z,7.20
2019-04-30T22:00:18.507Z,7.47
2019-04-30T22:02:51.234Z,6.40
2019-04-30T22:06:40.931Z,7.43
2019-04-30T22:09:15.695Z,7.27
2019-04-30T22:12:43.481Z,7.50
2019-04-30T22:16:09.133Z,7.03
2019-04-30T22:18:51.570Z,8.60
2019-04-30T22:21:57.058Z,8.27
2019-04-30T22:25:32.015Z,8.30
2019-04-30T22:28:17.710Z,7.60
2019-04-30T22:31:14.123Z,8.90
2019-04-30T22:34:23.561Z,10.30
2019-04-30T22:37:25.946Z,8.60
2019-04-30T22:44:24.650Z,9.10
2019-04-30T22:47:35.662Z,9.13
2019-04-30T22:58:41.629Z,8.50
2019-04-30T23:02:01.999Z,8.00
2019-04-30T23:05:25.929Z,8.17
2019-04-30T23:08:47.215Z,8.97
2019-04-30T23:11:46.531Z,9.70
2019-04-30T23:15:20.358Z,9.07
2019-04-30T23:19:19.347Z,7.57
2019-04-30T23:22:49.813Z,8.47
2019-04-30T23:25:54.591Z,8.63
2019-04-30T23:28:21.613Z,9.23
2019-04-30T23:31:20.453Z,9.07
2019-04-30T23:34:48.529Z,8.57
2019-04-30T23:37:40.137Z,9.30
2019-04-30T23:40:57.390Z,8.07
2019-04-30T23:43:54.844Z,8.60
2019-04-30T23:46:46.965Z,8.80
2019-04-30T23:49:22.451Z,8.93
2019-04-30T23:52:19.407Z,10.07
2019-04-30T23:55:45.373Z,8.10
2019-04-30T23:58:17.770Z,9.60
